createdAt,value
2023-02-17T00:00:25.829Z,20.27
2023-02-17T00:02:56.463Z,20.26
2023-02-17T00:05:22.811Z,20.26
2023-02-17T00:07:49.224Z,20.24
2023-02-17T00:10:15.563Z,20.25
2023-02-17T00:12:41.884Z,20.24
2023-02-17T00:15:08.332Z,20.24
2023-02-17T00:17:34.669Z,20.24
2023-02-17T00:20:01.017Z,20.24
2023-02-17T00:22:27.335Z,20.23
2023-02-17T00:24:53.668Z,20.23
2023-02-17T00:27:20.001Z,20.22
2023-02-17T00:29:46.350Z,20.20
2023-02-17T00:32:12.887Z,20.21
2023-02-17T00:34:39.312Z,20.20
2023-02-17T00:37:06.710Z,20.20
2023-02-17T00:39:33.234Z,20.19
2023-02-17T00:41:59.620Z,20.18
2023-02-17T00:44:28.896Z,20.18
2023-02-17T00:46:55.298Z,20.17
2023-02-17T00:49:22.783Z,20.18
2023-02-17T00:51:49.118Z,20.16
2023-02-17T00:54:15.482Z,20.16
2023-02-17T00:56:41.808Z,20.17
2023-02-17T00:59:08.172Z,20.15
2023-02-17T01:01:34.537Z,20.14
2023-02-17T01:04:00.897Z,20.14
2023-02-17T01:06:31.484Z,20.14
2023-02-17T01:08:57.821Z,20.14
2023-02-17T01:11:24.979Z,20.13
2023-02-17T01:13:51.315Z,20.12
2023-02-17T01:16:22.491Z,20.11
2023-02-17T01:18:48.929Z,20.12
2023-02-17T01:21:19.128Z,20.12
2023-02-17T01:23:45.529Z,20.11
2023-02-17T01:26:15.456Z,20.10
2023-02-17T01:28:41.796Z,20.09
2023-02-17T01:31:08.526Z,20.09
2023-02-17T01:33:34.941Z,20.09
2023-02-17T01:36:01.923Z,20.08
2023-02-17T01:38:28.292Z,20.07
2023-02-17T01:40:55.598Z,20.07
2023-02-17T01:43:21.943Z,20.08
2023-02-17T01:45:54.954Z,20.06
2023-02-17T01:48:21.758Z,20.06
2023-02-17T01:50:52.865Z,20.05
2023-02-17T01:53:20.806Z,20.05
2023-02-17T01:55:47.201Z,20.06
2023-02-17T01:58:14.127Z,20.06
2023-02-17T02:00:40.473Z,20.04
2023-02-17T02:03:06.923Z,20.03
2023-02-17T02:05:33.258Z,20.04
2023-02-17T02:07:59.747Z,20.03
2023-02-17T02:10:26.117Z,20.03
2023-02-17T02:12:52.678Z,20.02
2023-02-17T02:15:19.987Z,20.00
2023-02-17T02:18:05.019Z,19.99
2023-02-17T02:20:57.229Z,19.99
2023-02-17T02:23:35.829Z,19.99
2023-02-17T02:26:10.754Z,19.99
2023-02-17T02:28:44.706Z,19.99
2023-02-17T02:31:30.359Z,19.98
2023-02-17T02:33:57.031Z,19.98
2023-02-17T02:36:30.205Z,19.98
2023-02-17T02:39:16.793Z,19.97
2023-02-17T02:41:44.240Z,19.97
2023-02-17T02:44:13.613Z,19.95
2023-02-17T02:46:39.963Z,19.96
2023-02-17T02:49:06.276Z,19.95
2023-02-17T02:51:39.212Z,19.95
2023-02-17T02:54:31.763Z,19.94
2023-02-17T06:28:56.167Z,20.39
2023-02-17T06:31:22.642Z,20.42
2023-02-17T06:33:49.043Z,20.43
2023-02-17T06:36:15.380Z,20.45
2023-02-17T06:38:41.727Z,20.38
2023-02-17T06:41:08.071Z,20.34
2023-02-17T06:43:34.407Z,20.32
2023-02-17T06:46:00.790Z,20.29
2023-02-17T06:48:27.208Z,20.29
2023-02-17T06:50:53.548Z,20.28
2023-02-17T06:53:19.875Z,20.26
2023-02-17T06:55:46.240Z,20.07
2023-02-17T06:58:12.577Z,20.05
2023-02-17T07:00:38.986Z,19.91
2023-02-17T07:03:05.420Z,19.80
2023-02-17T07:05:31.805Z,19.22
2023-02-17T07:07:58.551Z,18.66
2023-02-17T07:10:24.939Z,18.35
2023-02-17T07:12:51.288Z,18.68
2023-02-17T07:15:17.613Z,19.25
2023-02-17T07:17:43.940Z,19.63
2023-02-17T07:20:10.422Z,19.84
2023-02-17T07:22:36.832Z,19.92
2023-02-17T07:25:03.298Z,19.98
2023-02-17T07:27:29.634Z,20.01
2023-02-17T07:29:56.032Z,20.05
2023-02-17T07:32:22.412Z,20.08
2023-02-17T07:34:48.782Z,20.12
2023-02-17T07:37:15.125Z,20.13
2023-02-17T07:39:41.445Z,20.13
2023-02-17T07:42:07.797Z,20.13
2023-02-17T07:44:34.136Z,20.16
2023-02-17T07:47:00.464Z,20.16
2023-02-17T07:49:26.822Z,20.16
2023-02-17T07:51:53.176Z,20.31
2023-02-17T07:54:19.565Z,20.35
2023-02-17T07:56:45.899Z,20.39
2023-02-17T07:59:12.303Z,20.40
2023-02-17T08:01:38.628Z,20.38
2023-02-17T08:04:05.005Z,20.34
2023-02-17T08:06:31.347Z,20.27
2023-02-17T08:09:16.428Z,20.56
2023-02-17T08:12:01.676Z,20.76
2023-02-17T08:14:28.745Z,20.89
2023-02-17T08:16:55.205Z,20.89
2023-02-17T08:19:21.532Z,20.91
2023-02-17T08:21:47.933Z,20.88
2023-02-17T08:24:15.346Z,20.91
2023-02-17T08:26:41.675Z,20.95
2023-02-17T08:29:08.013Z,21.02
2023-02-17T08:31:34.752Z,21.07
2023-02-17T08:34:01.676Z,21.13
2023-02-17T08:36:28.003Z,21.17
2023-02-17T08:38:54.647Z,21.11
2023-02-17T08:41:22.204Z,21.10
2023-02-17T08:43:48.542Z,21.11
2023-02-17T08:46:14.972Z,21.06
2023-02-17T08:48:41.471Z,20.97
2023-02-17T08:51:07.807Z,21.08
2023-02-17T08:53:34.188Z,21.07
2023-02-17T08:56:00.689Z,20.99
2023-02-17T08:58:27.144Z,20.90
2023-02-17T09:00:53.505Z,20.86
2023-02-17T09:03:19.921Z,20.88
2023-02-17T09:05:46.247Z,20.90
2023-02-17T09:08:12.634Z,20.90
2023-02-17T09:10:38.980Z,20.93
2023-02-17T09:13:05.330Z,20.87
2023-02-17T09:15:31.784Z,20.89
2023-02-17T09:17:58.192Z,20.95
2023-02-17T09:20:25.545Z,20.83
2023-02-17T09:22:52.478Z,20.85
2023-02-17T09:25:18.959Z,20.75
2023-02-17T09:27:45.303Z,20.72
2023-02-17T09:30:11.935Z,20.76
2023-02-17T09:32:40.565Z,20.74
2023-02-17T09:35:07.430Z,20.65
2023-02-17T09:37:33.802Z,20.63
2023-02-17T09:40:00.272Z,20.68
2023-02-17T09:42:26.725Z,20.77
2023-02-17T09:44:59.824Z,20.68
2023-02-17T09:47:27.164Z,20.72
2023-02-17T09:49:54.351Z,20.71
2023-02-17T09:52:26.506Z,20.65
2023-02-17T09:55:00.794Z,20.64
2023-02-17T09:57:28.191Z,20.65
2023-02-17T09:59:59.109Z,20.64
2023-02-17T10:02:27.653Z,20.64
2023-02-17T10:04:54.126Z,20.64
2023-02-17T10:07:21.558Z,20.62
2023-02-17T10:09:49.549Z,20.60
2023-02-17T10:12:17.959Z,20.60
2023-02-17T10:15:00.977Z,20.61
2023-02-17T10:17:27.246Z,20.62
2023-02-17T10:20:05.555Z,20.62
2023-02-17T10:22:32.069Z,20.63
2023-02-17T10:24:58.658Z,20.63
2023-02-17T10:27:30.020Z,20.63
2023-02-17T10:30:15.123Z,20.63
2023-02-17T10:32:47.244Z,20.63
2023-02-17T10:35:14.313Z,20.62
2023-02-17T10:37:40.663Z,20.61
2023-02-17T10:40:12.624Z,20.61
2023-02-17T10:42:39.010Z,20.60
2023-02-17T10:45:12.860Z,20.57
2023-02-17T10:47:39.219Z,19.80
2023-02-17T10:50:14.786Z,19.98
2023-02-17T10:52:41.350Z,20.14
2023-02-17T10:58:27.749Z,20.36
2023-02-17T11:00:54.437Z,20.42
2023-02-17T11:03:21.085Z,20.47
2023-02-17T11:05:59.994Z,20.51
2023-02-17T11:08:33.944Z,20.53
2023-02-17T11:11:07.225Z,20.54
2023-02-17T11:13:34.959Z,20.55
2023-02-17T11:16:01.348Z,20.56
2023-02-17T11:18:28.323Z,20.56
2023-02-17T11:21:05.303Z,20.56
2023-02-17T11:23:31.721Z,20.57
2023-02-17T11:25:59.544Z,20.56
2023-02-17T11:28:26.221Z,20.48
2023-02-17T11:30:56.769Z,20.41
2023-02-17T11:33:33.716Z,20.46
2023-02-17T11:36:00.148Z,20.48
2023-02-17T11:38:27.705Z,20.47
2023-02-17T11:40:54.999Z,20.43
2023-02-17T11:43:21.364Z,20.43
2023-02-17T11:45:49.938Z,20.02
2023-02-17T11:48:26.008Z,20.15
2023-02-17T11:50:55.468Z,20.17
2023-02-17T11:53:37.360Z,20.32
2023-02-17T11:56:03.671Z,19.97
2023-02-17T11:58:45.832Z,20.16
2023-02-17T12:01:21.461Z,20.32
2023-02-17T12:04:03.140Z,20.37
2023-02-17T12:06:56.005Z,20.41
2023-02-17T12:09:30.156Z,20.40
2023-02-17T12:12:01.302Z,20.40
2023-02-17T12:14:49.934Z,20.40
2023-02-17T12:17:39.496Z,20.43
2023-02-17T12:20:21.326Z,20.43
2023-02-17T12:23:06.384Z,20.36
2023-02-17T12:25:33.493Z,20.39
2023-02-17T12:28:00.046Z,20.41
2023-02-17T12:30:33.223Z,20.39
2023-02-17T12:33:18.336Z,20.40
2023-02-17T12:35:46.347Z,20.39
2023-02-17T12:38:16.738Z,20.35
2023-02-17T12:40:45.049Z,20.33
2023-02-17T12:43:17.499Z,20.32
2023-02-17T12:45:44.178Z,20.32
2023-02-17T12:48:13.512Z,20.32
2023-02-17T12:50:42.168Z,20.32
2023-02-17T12:53:12.526Z,20.33
2023-02-17T12:55:48.429Z,20.33
2023-02-17T12:58:16.334Z,20.33
2023-02-17T13:00:43.937Z,20.32
2023-02-17T13:03:10.266Z,20.31
2023-02-17T13:05:40.832Z,20.33
2023-02-17T13:08:17.445Z,20.33
2023-02-17T13:10:43.779Z,20.34
2023-02-17T13:13:26.337Z,20.31
2023-02-17T13:16:08.766Z,20.33
2023-02-17T13:18:36.142Z,20.32
2023-02-17T13:21:27.584Z,20.32
2023-02-17T13:24:01.207Z,20.25
2023-02-17T13:26:31.899Z,20.29
2023-02-17T13:29:16.757Z,20.28
2023-02-17T13:31:44.548Z,20.30
2023-02-17T13:34:11.415Z,20.32
2023-02-17T13:36:37.976Z,20.30
2023-02-17T13:39:23.243Z,20.32
2023-02-17T13:41:49.571Z,20.33
2023-02-17T13:44:28.732Z,20.32
2023-02-17T13:46:56.994Z,20.31
2023-02-17T13:49:24.748Z,20.32
2023-02-17T13:51:51.124Z,20.32
2023-02-17T13:54:19.789Z,20.29
2023-02-17T13:56:49.543Z,20.29
2023-02-17T13:59:19.617Z,20.29
2023-02-17T14:01:46.066Z,20.28
2023-02-17T14:04:21.374Z,20.21
2023-02-17T14:06:49.708Z,19.99
2023-02-17T14:09:26.341Z,20.01
2023-02-17T14:11:52.785Z,20.15
2023-02-17T14:14:19.107Z,20.24
2023-02-17T14:16:45.485Z,20.32
2023-02-17T14:19:15.682Z,20.34
2023-02-17T14:21:45.543Z,20.38
2023-02-17T14:24:25.332Z,20.35
2023-02-17T14:26:55.072Z,20.36
2023-02-17T14:29:21.412Z,20.36
2023-02-17T14:31:48.683Z,20.38
2023-02-17T14:34:25.654Z,20.38
2023-02-17T14:36:51.978Z,20.38
2023-02-17T14:39:18.318Z,20.40
2023-02-17T14:41:44.691Z,20.39
2023-02-17T14:44:11.013Z,20.38
2023-02-17T14:46:37.493Z,20.36
2023-02-17T14:49:03.926Z,20.37
2023-02-17T14:51:34.252Z,20.36
2023-02-17T14:54:11.414Z,20.37
2023-02-17T14:56:38.239Z,20.35
2023-02-17T14:59:04.653Z,20.37
2023-02-17T15:01:31.089Z,20.38
2023-02-17T15:04:00.772Z,20.36
2023-02-17T15:06:30.799Z,20.37
2023-02-17T15:08:58.573Z,20.36
2023-02-17T15:11:31.520Z,20.34
2023-02-17T15:13:57.871Z,20.35
2023-02-17T15:16:24.229Z,20.35
2023-02-17T15:18:50.970Z,20.33
2023-02-17T15:21:35.195Z,20.33
2023-02-17T15:24:01.591Z,20.32
2023-02-17T15:26:28.247Z,20.31
2023-02-17T15:28:57.045Z,20.28
2023-02-17T15:31:23.874Z,20.28
2023-02-17T15:33:59.458Z,20.26
2023-02-17T15:36:26.081Z,20.28
2023-02-17T15:38:52.415Z,20.27
2023-02-17T15:41:20.297Z,20.30
2023-02-17T15:43:47.123Z,20.30
2023-02-17T15:46:14.044Z,20.31
2023-02-17T15:48:40.406Z,20.33
2023-02-17T15:51:06.730Z,20.36
2023-02-17T15:53:34.407Z,20.36
2023-02-17T15:56:01.307Z,20.35
2023-02-17T15:58:27.702Z,20.36
2023-02-17T16:00:55.908Z,20.38
2023-02-17T16:03:22.372Z,20.38
2023-02-17T16:05:48.733Z,20.35
2023-02-17T16:08:15.085Z,20.34
2023-02-17T16:10:45.256Z,20.35
2023-02-17T16:13:12.581Z,20.34
2023-02-17T16:15:38.905Z,20.35
2023-02-17T16:18:05.275Z,20.33
2023-02-17T16:20:35.133Z,20.33
2023-02-17T16:23:01.560Z,20.33
2023-02-17T16:25:27.959Z,20.34
2023-02-17T16:27:54.338Z,20.33
2023-02-17T16:30:21.821Z,20.32
2023-02-17T16:32:48.179Z,20.35
2023-02-17T16:35:15.246Z,20.35
2023-02-17T16:37:41.813Z,20.35
2023-02-17T16:40:14.958Z,20.36
2023-02-17T16:42:41.322Z,20.33
2023-02-17T16:45:13.108Z,20.34
2023-02-17T16:47:39.432Z,20.34
2023-02-17T16:50:06.464Z,20.35
2023-02-17T16:52:32.780Z,20.34
2023-02-17T16:54:59.196Z,20.34
2023-02-17T16:57:26.390Z,20.33
2023-02-17T16:59:52.733Z,20.34
2023-02-17T17:02:20.731Z,20.32
2023-02-17T17:04:48.014Z,20.33
2023-02-17T17:07:15.945Z,20.34
2023-02-17T17:09:45.239Z,20.35
2023-02-17T17:12:15.223Z,20.35
2023-02-17T17:14:41.548Z,20.35
2023-02-17T17:17:08.709Z,20.37
2023-02-17T17:19:35.035Z,20.37
2023-02-17T17:22:01.370Z,20.36
2023-02-17T17:24:27.696Z,20.38
2023-02-17T17:26:55.782Z,20.39
2023-02-17T17:29:22.110Z,20.38
2023-02-17T17:31:48.548Z,20.39
2023-02-17T17:34:14.942Z,20.40
2023-02-17T17:36:42.085Z,20.38
2023-02-17T17:39:11.005Z,20.38
2023-02-17T17:41:37.315Z,20.38
2023-02-17T17:44:03.655Z,20.38
2023-02-17T17:46:30.638Z,20.38
2023-02-17T17:48:58.752Z,20.36
2023-02-17T17:51:25.184Z,20.36
2023-02-17T17:53:51.622Z,20.35
2023-02-17T17:56:24.560Z,20.34
2023-02-17T17:58:50.925Z,20.35
2023-02-17T18:01:17.322Z,20.33
2023-02-17T18:03:43.710Z,20.30
2023-02-17T18:06:21.203Z,20.28
2023-02-17T18:08:47.541Z,20.26
2023-02-17T18:11:14.335Z,20.28
2023-02-17T18:13:40.733Z,20.25
2023-02-17T18:16:07.418Z,20.30
2023-02-17T18:18:33.873Z,20.32
2023-02-17T18:21:00.221Z,20.33
2023-02-17T18:23:26.555Z,20.29
2023-02-17T18:25:52.882Z,20.41
2023-02-17T18:28:19.199Z,20.39
2023-02-17T18:30:45.629Z,20.35
2023-02-17T18:33:14.399Z,20.35
2023-02-17T18:35:40.877Z,20.36
2023-02-17T18:38:07.213Z,20.34
2023-02-17T18:40:36.906Z,20.33
2023-02-17T18:43:03.243Z,20.33
2023-02-17T18:45:30.012Z,20.34
2023-02-17T18:47:56.348Z,20.37
2023-02-17T18:50:22.744Z,20.52
2023-02-17T18:52:49.126Z,20.62
2023-02-17T18:55:15.475Z,20.70
2023-02-17T18:57:41.806Z,20.82
2023-02-17T19:00:09.612Z,20.86
2023-02-17T19:02:37.132Z,20.86
2023-02-17T19:05:04.079Z,20.87
2023-02-17T19:07:40.431Z,20.88
2023-02-17T19:10:09.747Z,20.75
2023-02-17T19:12:37.407Z,20.61
2023-02-17T19:15:04.129Z,20.47
2023-02-17T19:17:30.464Z,20.51
2023-02-17T19:19:56.817Z,20.49
2023-02-17T19:22:23.161Z,20.51
2023-02-17T19:24:52.753Z,20.51
2023-02-17T19:27:19.103Z,20.50
2023-02-17T19:29:45.433Z,20.50
2023-02-17T19:32:11.815Z,20.43
2023-02-17T19:34:38.448Z,20.49
2023-02-17T19:37:04.862Z,20.41
2023-02-17T19:39:31.364Z,20.40
2023-02-17T19:41:57.699Z,20.48
2023-02-17T19:44:24.023Z,20.44
2023-02-17T19:46:50.360Z,20.41
2023-02-17T19:49:16.758Z,20.43
2023-02-17T19:51:43.091Z,20.42
2023-02-17T19:54:09.455Z,20.41
2023-02-17T19:56:36.383Z,20.45
2023-02-17T19:59:02.702Z,20.45
2023-02-17T20:01:30.142Z,20.45
2023-02-17T20:03:56.636Z,20.43
2023-02-17T20:06:33.055Z,20.42
2023-02-17T20:09:00.180Z,20.41
2023-02-17T20:11:26.603Z,20.37
2023-02-17T20:13:52.955Z,20.36
2023-02-17T20:16:19.331Z,20.39
2023-02-17T20:18:46.583Z,20.34
2023-02-17T20:21:13.706Z,20.39
2023-02-17T20:23:40.029Z,20.40
2023-02-17T20:26:07.614Z,20.41
2023-02-17T20:28:34.126Z,20.42
2023-02-17T20:31:00.767Z,20.40
2023-02-17T20:33:27.126Z,20.40
2023-02-17T20:35:53.476Z,20.38
2023-02-17T20:38:19.807Z,20.39
2023-02-17T20:40:46.146Z,20.38
2023-02-17T20:43:12.496Z,20.38
2023-02-17T20:45:39.051Z,20.37
2023-02-17T20:48:05.632Z,20.36
2023-02-17T20:50:31.997Z,20.34
2023-02-17T20:52:58.383Z,20.36
2023-02-17T20:55:26.956Z,20.35
2023-02-17T20:57:53.929Z,20.37
2023-02-17T21:00:21.134Z,20.36
2023-02-17T21:02:47.582Z,20.38
2023-02-17T21:05:14.076Z,20.36
2023-02-17T21:07:40.404Z,20.36
2023-02-17T21:10:07.284Z,20.36
2023-02-17T21:12:33.680Z,20.34
2023-02-17T21:15:00.072Z,20.32
2023-02-17T21:17:26.419Z,20.32
2023-02-17T21:19:52.747Z,20.31
2023-02-17T21:22:19.067Z,20.30
2023-02-17T21:24:45.393Z,20.30
2023-02-17T21:27:11.871Z,20.30
2023-02-17T21:29:38.272Z,20.31
2023-02-17T21:32:05.466Z,20.32
2023-02-17T21:34:35.199Z,20.32
2023-02-17T21:37:01.533Z,20.33
2023-02-17T21:39:27.847Z,20.33
2023-02-17T21:41:54.230Z,20.33
2023-02-17T21:44:39.049Z,20.33
2023-02-17T21:47:05.788Z,20.30
2023-02-17T21:49:32.111Z,20.31
2023-02-17T21:51:58.467Z,20.29
2023-02-17T21:54:24.790Z,20.30
2023-02-17T21:56:51.146Z,20.29
2023-02-17T21:59:17.478Z,20.28
2023-02-17T22:01:43.803Z,20.26
2023-02-17T22:04:10.168Z,20.24
2023-02-17T22:06:37.115Z,20.25
2023-02-17T22:09:03.658Z,20.24
2023-02-17T22:11:30.823Z,20.23
2023-02-17T22:13:57.561Z,20.19
2023-02-17T22:16:24.048Z,20.15
2023-02-17T22:18:50.470Z,20.15
2023-02-17T22:21:16.793Z,20.16
2023-02-17T22:23:43.182Z,20.14
2023-02-17T22:26:13.717Z,20.14
2023-02-17T22:28:40.031Z,20.12
2023-02-17T22:31:06.422Z,20.14
2023-02-17T22:33:32.888Z,20.16
2023-02-17T22:35:59.871Z,20.17
2023-02-17T22:38:26.189Z,20.16
2023-02-17T22:40:52.515Z,20.15
2023-02-17T22:43:18.836Z,20.14
2023-02-17T22:45:45.219Z,20.13
2023-02-17T22:48:11.586Z,20.15
2023-02-17T22:50:38.482Z,20.15
2023-02-17T22:53:04.807Z,20.14
2023-02-17T22:55:31.136Z,20.14
2023-02-17T22:57:57.482Z,20.14
2023-02-17T23:00:23.860Z,20.11
2023-02-17T23:02:50.180Z,20.09
2023-02-17T23:05:16.754Z,20.05
2023-02-17T23:07:43.087Z,20.05
2023-02-17T23:10:09.467Z,20.05
2023-02-17T23:12:36.449Z,20.05
2023-02-17T23:15:02.797Z,20.03
2023-02-17T23:17:49.093Z,20.02
2023-02-17T23:20:15.425Z,20.04
2023-02-17T23:22:41.746Z,20.02
2023-02-17T23:25:08.088Z,20.01
2023-02-17T23:27:34.410Z,20.01
2023-02-17T23:30:00.800Z,20.00
2023-02-17T23:32:27.288Z,20.00
2023-02-17T23:34:53.622Z,19.99
2023-02-17T23:37:19.942Z,19.97
2023-02-17T23:39:46.273Z,19.97
2023-02-17T23:42:12.646Z,19.97
2023-02-17T23:44:38.973Z,19.96
2023-02-17T23:47:05.300Z,19.95
2023-02-17T23:49:31.623Z,19.94
2023-02-17T23:51:57.963Z,19.94
2023-02-17T23:54:24.949Z,19.95
2023-02-17T23:56:51.289Z,19.94
2023-02-17T23:59:17.708Z,19.93
